Observation data for Dora on 11/19/2019      Previous  Date       Current Mesonet Observations  Soil Data  Daily Summary Page  Observations in Plain Language
KDR1 190600Z 15009KT 10/M03 A3002 RMK A01 T01021032  RH  039%=      5-min Rain = 0
KDR1 190605Z 15009KT 10/M03 A3001 RMK A01 T01011033  RH  039%=      5-min Rain = 0
KDR1 190610Z 16009KT 10/M03 A3002 RMK A01 T00961033  RH  040%=      5-min Rain = 0
KDR1 190615Z 17008KT 09/M03 A3002 RMK A01 T00931032  RH  041%=      5-min Rain = 0
KDR1 190620Z 18009KT 09/M03 A3002 RMK A01 T00931033  RH  041%=      5-min Rain = 0
KDR1 190625Z 19010KT 09/M03 A3002 RMK A01 T00931032  RH  042%=      5-min Rain = 0
KDR1 190630Z 19009KT 09/M03 A3002 RMK A01 T00901031  RH  043%=      5-min Rain = 0
KDR1 190635Z 19010KT 10/M03 A3002 RMK A01 T00951031  RH  041%=      5-min Rain = 0
KDR1 190640Z 20011KT 10/M03 A3002 RMK A01 T00961031  RH  041%=      5-min Rain = 0
KDR1 190645Z 19011KT 09/M03 A3002 RMK A01 T00931031  RH  042%=      5-min Rain = 0
KDR1 190650Z 20012KT 09/M03 A3002 RMK A01 T00921031  RH  042%=      5-min Rain = 0
KDR1 190655Z 20012KT 09/M03 A3002 RMK A01 T00941031  RH  042%=      5-min Rain = 0
KDR1 190700Z 20013KT 09/M03 A3002 RMK A01 T00931031  RH  042%=      5-min Rain = 0
KDR1 190705Z 20013KT 09/M03 A3002 RMK A01 T00941031  RH  042%=      5-min Rain = 0
KDR1 190710Z 21013KT 09/M03 A3002 RMK A01 T00941030  RH  042%=      5-min Rain = 0
KDR1 190715Z 21013KT 09/M03 A3002 RMK A01 T00941027  RH  043%=      5-min Rain = 0
KDR1 190720Z 21014KT 10/M02 A3002 RMK A01 T00961024  RH  043%=      5-min Rain = 0
KDR1 190725Z 21013KT 10/M02 A3002 RMK A01 T00961023  RH  043%=      5-min Rain = 0
KDR1 190730Z 20013KT 10/M02 A3002 RMK A01 T00961022  RH  044%=      5-min Rain = 0
KDR1 190735Z 20012KT 10/M02 A3002 RMK A01 T01041021  RH  042%=      5-min Rain = 0
KDR1 190740Z 19011KT 10/M02 A3002 RMK A01 T01011022  RH  042%=      5-min Rain = 0
KDR1 190745Z 20012KT 09/M02 A3002 RMK A01 T00941021  RH  045%=      5-min Rain = 0
KDR1 190750Z 19011KT 10/M02 A3001 RMK A01 T00961022  RH  044%=      5-min Rain = 0
KDR1 190755Z 19011KT 09/M02 A3001 RMK A01 T00901022  RH  045%=      5-min Rain = 0
KDR1 190800Z 19011KT 09/M02 A3001 RMK A01 T00891022  RH  046%=      5-min Rain = 0
KDR1 190805Z 19011KT 09/M02 A3001 RMK A01 T00911022  RH  045%=      5-min Rain = 0
KDR1 190810Z 19011KT 09/M02 A3001 RMK A01 T00891022  RH  046%=      5-min Rain = 0
KDR1 190815Z 19011KT 09/M02 A3002 RMK A01 T00911022  RH  045%=      5-min Rain = 0
KDR1 190820Z 19011KT 09/M02 A3002 RMK A01 T00901022  RH  045%=      5-min Rain = 0
KDR1 190825Z 19011KT 09/M02 A3002 RMK A01 T00871022  RH  046%=      5-min Rain = 0
KDR1 190830Z 19011KT 09/M02 A3002 RMK A01 T00901021  RH  046%=      5-min Rain = 0
KDR1 190835Z 19011KT 09/M02 A3002 RMK A01 T00931022  RH  045%=      5-min Rain = 0
KDR1 190840Z 19011KT 09/M02 A3002 RMK A01 T00921022  RH  045%=      5-min Rain = 0
KDR1 190845Z 19011KT 09/M02 A3002 RMK A01 T00901022  RH  046%=      5-min Rain = 0
KDR1 190850Z 19011KT 09/M02 A3001 RMK A01 T00881022  RH  046%=      5-min Rain = 0
KDR1 190855Z 19011KT 09/M02 A3001 RMK A01 T00881021  RH  047%=      5-min Rain = 0
KDR1 190900Z 19011KT 09/M02 A3001 RMK A01 T00871021  RH  047%=      5-min Rain = 0
KDR1 190905Z 19012KT 09/M02 A3001 RMK A01 T00901021  RH  046%=      5-min Rain = 0
KDR1 190910Z 19012KT 09/M02 A3001 RMK A01 T00921021  RH  045%=      5-min Rain = 0
KDR1 190915Z 18012KT 09/M02 A3001 RMK A01 T00881021  RH  046%=      5-min Rain = 0
KDR1 190920Z 18012KT 09/M02 A3001 RMK A01 T00911021  RH  046%=      5-min Rain = 0
KDR1 190925Z 18012KT 09/M02 A3001 RMK A01 T00911021  RH  046%=      5-min Rain = 0
KDR1 190930Z 18012KT 09/M02 A30 RMK A01 T00911021  RH  046%=      5-min Rain = 0
KDR1 190935Z 18012KT 09/M02 A30 RMK A01 T00881022  RH  046%=      5-min Rain = 0
KDR1 190940Z 19011KT 09/M02 A30 RMK A01 T00891021  RH  046%=      5-min Rain = 0
KDR1 190945Z 18011KT 09/M02 A30 RMK A01 T00851022  RH  048%=      5-min Rain = 0
KDR1 190950Z 18010KT 08/M02 A30 RMK A01 T00841021  RH  048%=      5-min Rain = 0
KDR1 190955Z 18010KT 08/M02 A30 RMK A01 T00811021  RH  049%=      5-min Rain = 0
KDR1 191000Z 19012KT 08/M02 A30 RMK A01 T00821021  RH  048%=      5-min Rain = 0
KDR1 191005Z 19011KT 08/M02 A30 RMK A01 T00781022  RH  050%=      5-min Rain = 0
KDR1 191010Z 18011KT 07/M02 A2999 RMK A01 T00741021  RH  051%=      5-min Rain = 0
KDR1 191015Z 18011KT 08/M02 A2999 RMK A01 T00771021  RH  050%=      5-min Rain = 0
KDR1 191020Z 18012KT 08/M02 A2999 RMK A01 T00791021  RH  050%=      5-min Rain = 0
KDR1 191025Z 18012KT 08/M02 A2999 RMK A01 T00801022  RH  049%=      5-min Rain = 0
KDR1 191030Z 18011KT 08/M02 A2999 RMK A01 T00801022  RH  049%=      5-min Rain = 0
KDR1 191035Z 19010KT 08/M02 A2999 RMK A01 T00781023  RH  049%=      5-min Rain = 0
KDR1 191040Z 19011KT 08/M02 A2999 RMK A01 T00801022  RH  049%=      5-min Rain = 0
KDR1 191045Z 19012KT 09/M02 A2999 RMK A01 T00851023  RH  047%=      5-min Rain = 0
KDR1 191050Z 19010KT 08/M02 A2999 RMK A01 T00801024  RH  048%=      5-min Rain = 0
KDR1 191055Z 20011KT 07/M02 A2999 RMK A01 T00741023  RH  051%=      5-min Rain = 0
KDR1 191100Z 20012KT 08/M02 A2999 RMK A01 T00791023  RH  049%=      5-min Rain = 0
KDR1 191105Z 20012KT 08/M02 A2999 RMK A01 T00771023  RH  050%=      5-min Rain = 0
KDR1 191110Z 20012KT 08/M02 A2999 RMK A01 T00771023  RH  049%=      5-min Rain = 0
KDR1 191115Z 20012KT 08/M02 A2998 RMK A01 T00751024  RH  050%=      5-min Rain = 0
KDR1 191120Z 20012KT 07/M02 A2998 RMK A01 T00721023  RH  051%=      5-min Rain = 0
KDR1 191125Z 20012KT 08/M02 A2998 RMK A01 T00751022  RH  051%=      5-min Rain = 0
KDR1 191130Z 20012KT 08/M02 A2998 RMK A01 T00761023  RH  050%=      5-min Rain = 0
KDR1 191135Z 20013KT 08/M02 A2998 RMK A01 T00781023  RH  049%=      5-min Rain = 0
KDR1 191140Z 20012KT 08/M02 A2998 RMK A01 T00781024  RH  049%=      5-min Rain = 0
KDR1 191145Z 20012KT 08/M02 A2998 RMK A01 T00761024  RH  049%=      5-min Rain = 0
KDR1 191150Z 21011KT 08/M02 A2998 RMK A01 T00781024  RH  049%=      5-min Rain = 0
KDR1 191155Z 20012KT 08/M03 A2998 RMK A01 T00841025  RH  046%=      5-min Rain = 0
KDR1 191200Z 20012KT 09/M03 A2997 RMK A01 T00851026  RH  046%=      5-min Rain = 0
KDR1 191205Z 21012KT 09/M03 A2997 RMK A01 T00871026  RH  045%=      5-min Rain = 0
KDR1 191210Z 21012KT 09/M03 A2997 RMK A01 T00851027  RH  046%=      5-min Rain = 0
KDR1 191215Z 21012KT 08/M03 A2997 RMK A01 T00811026  RH  047%=      5-min Rain = 0
KDR1 191220Z 21012KT 08/M03 A2997 RMK A01 T00781025  RH  048%=      5-min Rain = 0
KDR1 191225Z 21012KT 08/M03 A2997 RMK A01 T00791025  RH  048%=      5-min Rain = 0
KDR1 191230Z 21013KT 08/M03 A2997 RMK A01 T00821026  RH  047%=      5-min Rain = 0
KDR1 191235Z 21013KT 09/M03 A2997 RMK A01 T00871027  RH  045%=      5-min Rain = 0
KDR1 191240Z 20012KT 09/M03 A2997 RMK A01 T00901028  RH  044%=      5-min Rain = 0
KDR1 191245Z 20013KT 09/M03 A2997 RMK A01 T00891029  RH  044%=      5-min Rain = 0
KDR1 191250Z 20013KT 09/M03 A2997 RMK A01 T00891029  RH  044%=      5-min Rain = 0
KDR1 191255Z 20012KT 09/M03 A2997 RMK A01 T00861029  RH  044%=      5-min Rain = 0
KDR1 191300Z 20013KT 08/M03 A2997 RMK A01 T00831028  RH  046%=      5-min Rain = 0
KDR1 191305Z 20012KT 08/M03 A2997 RMK A01 T00831028  RH  046%=      5-min Rain = 0
KDR1 191310Z 20011KT 08/M03 A2997 RMK A01 T00781028  RH  048%=      5-min Rain = 0
KDR1 191315Z 20011KT 08/M03 A2997 RMK A01 T00771027  RH  048%=      5-min Rain = 0
KDR1 191320Z 21013KT 09/M03 A2997 RMK A01 T00871028  RH  044%=      5-min Rain = 0
KDR1 191325Z 21014KT 08/M03 A2998 RMK A01 T00841029  RH  045%=      5-min Rain = 0
KDR1 191330Z 21013KT 08/M03 A2998 RMK A01 T00831029  RH  046%=      5-min Rain = 0
KDR1 191335Z 21012KT 08/M03 A2998 RMK A01 T00821028  RH  046%=      5-min Rain = 0
KDR1 191340Z 20012KT 09/M03 A2998 RMK A01 T00881029  RH  044%=      5-min Rain = 0
KDR1 191345Z 20013KT 09/M03 A2998 RMK A01 T00921029  RH  043%=      5-min Rain = 0
KDR1 191350Z 21012KT 10/M03 A2998 RMK A01 T00951029  RH  042%=      5-min Rain = 0
KDR1 191355Z 21012KT 10/M03 A2998 RMK A01 T00961029  RH  041%=      5-min Rain = 0
KDR1 191400Z 21012KT 10/M03 A2998 RMK A01 T00951029  RH  042%=      5-min Rain = 0
KDR1 191405Z 21011KT 10/M03 A2998 RMK A01 T00951028  RH  042%=      5-min Rain = 0
KDR1 191410Z 21012KT 10/M03 A2998 RMK A01 T00971028  RH  042%=      5-min Rain = 0
KDR1 191415Z 21011KT 10/M03 A2998 RMK A01 T01031029  RH  040%=      5-min Rain = 0
KDR1 191420Z 21010KT 10/M03 A2998 RMK A01 T01041028  RH  040%=      5-min Rain = 0
KDR1 191425Z 21011KT 11/M03 A2998 RMK A01 T01071028  RH  039%=      5-min Rain = 0
KDR1 191430Z 20010KT 11/M03 A2998 RMK A01 T01121027  RH  038%=      5-min Rain = 0
KDR1 191435Z 20011KT 12/M03 A2998 RMK A01 T01171026  RH  037%=      5-min Rain = 0
KDR1 191440Z 20011KT 12/M02 A2998 RMK A01 T01211024  RH  036%=      5-min Rain = 0
KDR1 191445Z 20010KT 13/M02 A2998 RMK A01 T01261024  RH  035%=      5-min Rain = 0
KDR1 191450Z 20009KT 13/M02 A2998 RMK A01 T01301022  RH  035%=      5-min Rain = 0
KDR1 191455Z 20009KT 13/M02 A2998 RMK A01 T01341021  RH  034%=      5-min Rain = 0
KDR1 191500Z 20010KT 14/M02 A2998 RMK A01 T01361022  RH  034%=      5-min Rain = 0
KDR1 191505Z 20011KT 14/M02 A2998 RMK A01 T01391021  RH  033%=      5-min Rain = 0
KDR1 191510Z 19011KT 14/M02 A2998 RMK A01 T01431020  RH  033%=      5-min Rain = 0
KDR1 191515Z 20011KT 15/M02 A2998 RMK A01 T01471020  RH  032%=      5-min Rain = 0
KDR1 191520Z 20010KT 15/M02 A2998 RMK A01 T01531020  RH  031%=      5-min Rain = 0
KDR1 191525Z 20011KT 16/M02 A2998 RMK A01 T01561023  RH  029%=      5-min Rain = 0
KDR1 191530Z 19010KT 16/M02 A2998 RMK A01 T01611023  RH  028%=      5-min Rain = 0
KDR1 191535Z 20011KT 17/M02 A2998 RMK A01 T01651023  RH  028%=      5-min Rain = 0
KDR1 191540Z 19010KT 17/M02 A2998 RMK A01 T01681021  RH  027%=      5-min Rain = 0
KDR1 191545Z 19011KT 17/M02 A2998 RMK A01 T01711020  RH  027%=      5-min Rain = 0
KDR1 191550Z 19010KT 18/M02 A2999 RMK A01 T01761020  RH  027%=      5-min Rain = 0
KDR1 191555Z 19011KT 18/M02 A2999 RMK A01 T01801021  RH  026%=      5-min Rain = 0
KDR1 191600Z 19011KT 18/M02 A2998 RMK A01 T01821022  RH  025%=      5-min Rain = 0
KDR1 191605Z 19011KT 19/M02 A2998 RMK A01 T01861022  RH  024%=      5-min Rain = 0
KDR1 191610Z 19012KT 19/M02 A2998 RMK A01 T01901023  RH  024%=      5-min Rain = 0
KDR1 191615Z 19012KT 19/M03 A2998 RMK A01 T01901025  RH  023%=      5-min Rain = 0
KDR1 191620Z 19012KT 19/M03 A2998 RMK A01 T01911027  RH  023%=      5-min Rain = 0
KDR1 191625Z 19012KT 20/M03 A2998 RMK A01 T01961026  RH  022%=      5-min Rain = 0
KDR1 191630Z 19012KT 20/M03 A2998 RMK A01 T01981026  RH  022%=      5-min Rain = 0
KDR1 191635Z 20013KT 20/M03 A2998 RMK A01 T01971030  RH  021%=      5-min Rain = 0
KDR1 191640Z 20015KT 20/M03 A2998 RMK A01 T01981033  RH  021%=      5-min Rain = 0
KDR1 191645Z 20015KT 20/M04 A2998 RMK A01 T01991035  RH  020%=      5-min Rain = 0
KDR1 191650Z 20014KT 20/M03 A2998 RMK A01 T02021033  RH  020%=      5-min Rain = 0
KDR1 191655Z 20015KT 20/M04 A2998 RMK A01 T02031035  RH  020%=      5-min Rain = 0
KDR1 191700Z 20015KT 21/M04 A2998 RMK A01 T02051035  RH  020%=      5-min Rain = 0
KDR1 191705Z 20016KT 21/M04 A2997 RMK A01 T02071035  RH  020%=      5-min Rain = 0
KDR1 191710Z 20016G21KT 21/M04 A2997 RMK A01 T02071036  RH  019%=      5-min Rain = 0
KDR1 191715Z 20016G22KT 21/M04 A2997 RMK A01 T02081036  RH  019%=      5-min Rain = 0
KDR1 191720Z 20016G21KT 21/M04 A2997 RMK A01 T02111035  RH  019%=      5-min Rain = 0
KDR1 191725Z 20015KT 21/M04 A2997 RMK A01 T02091036  RH  019%=      5-min Rain = 0
KDR1 191730Z 20016G21KT 21/M04 A2996 RMK A01 T02121036  RH  019%=      5-min Rain = 0
KDR1 191735Z 21015KT 21/M04 A2996 RMK A01 T02141036  RH  019%=      5-min Rain = 0
KDR1 191740Z 20014G19KT 21/M04 A2996 RMK A01 T02141035  RH  019%=      5-min Rain = 0
KDR1 191745Z 20014KT 22/M04 A2995 RMK A01 T02171036  RH  018%=      5-min Rain = 0
KDR1 191750Z 20014G19KT 21/M04 A2995 RMK A01 T02121036  RH  019%=      5-min Rain = 0
KDR1 191755Z 21015G21KT 21/M04 A2995 RMK A01 T02081036  RH  019%=      5-min Rain = 0
KDR1 191800Z 21015G20KT 21/M03 A2995 RMK A01 T02121034  RH  019%=      5-min Rain = 0
KDR1 191805Z 20015KT 21/M03 A2994 RMK A01 T02131034  RH  019%=      5-min Rain = 0
KDR1 191810Z 20015G20KT 21/M03 A2994 RMK A01 T02141034  RH  019%=      5-min Rain = 0
KDR1 191815Z 20016KT 21/M03 A2994 RMK A01 T02131034  RH  019%=      5-min Rain = 0
KDR1 191820Z 21013G19KT 22/M03 A2994 RMK A01 T02171031  RH  019%=      5-min Rain = 0
KDR1 191825Z 21014KT 23/M04 A2993 RMK A01 T02261037  RH  017%=      5-min Rain = 0
KDR1 191830Z 22014G19KT 24/M04 A2993 RMK A01 T02351041  RH  016%=      5-min Rain = 0
KDR1 191835Z 21016G21KT 23/M05 A2992 RMK A01 T02341045  RH  015%=      5-min Rain = 0
KDR1 191840Z 22015G22KT 24/M05 A2992 RMK A01 T02351047  RH  015%=      5-min Rain = 0
KDR1 191845Z 22016G23KT 23/M05 A2992 RMK A01 T02301048  RH  015%=      5-min Rain = 0
KDR1 191850Z 21015G20KT 23/M05 A2991 RMK A01 T02311049  RH  015%=      5-min Rain = 0
KDR1 191855Z 21017KT 23/M05 A2991 RMK A01 T02291050  RH  015%=      5-min Rain = 0
KDR1 191900Z 22015KT 23/M05 A2991 RMK A01 T02311048  RH  015%=      5-min Rain = 0
KDR1 191905Z 21015G20KT 23/M05 A2991 RMK A01 T02341049  RH  015%=      5-min Rain = 0
KDR1 191910Z 21016G21KT 23/M05 A299 RMK A01 T02341050  RH  015%=      5-min Rain = 0
KDR1 191915Z 22015G20KT 23/M05 A299 RMK A01 T02341049  RH  015%=      5-min Rain = 0
KDR1 191920Z 22015KT 24/M05 A2989 RMK A01 T02351048  RH  015%=      5-min Rain = 0
KDR1 191925Z 22015G22KT 24/M05 A2989 RMK A01 T02381048  RH  015%=      5-min Rain = 0
KDR1 191930Z 22015G21KT 24/M05 A2989 RMK A01 T02381048  RH  015%=      5-min Rain = 0
KDR1 191935Z 23018G23KT 24/M05 A2989 RMK A01 T02371050  RH  014%=      5-min Rain = 0
KDR1 191940Z 23017KT 23/M05 A2988 RMK A01 T02341050  RH  015%=      5-min Rain = 0
KDR1 191945Z 23015G20KT 24/M05 A2988 RMK A01 T02361049  RH  015%=      5-min Rain = 0
KDR1 191950Z 22015KT 24/M05 A2988 RMK A01 T02371047  RH  015%=      5-min Rain = 0
KDR1 191955Z 21014G20KT 24/M05 A2988 RMK A01 T02371047  RH  015%=      5-min Rain = 0
KDR1 192000Z 22014KT 24/M05 A2987 RMK A01 T02411046  RH  014%=      5-min Rain = 0
KDR1 192005Z 22015KT 23/M05 A2987 RMK A01 T02331047  RH  015%=      5-min Rain = 0
KDR1 192010Z 23013G18KT 24/M05 A2987 RMK A01 T02361046  RH  015%=      5-min Rain = 0
KDR1 192015Z 22012G18KT 23/M05 A2987 RMK A01 T02341046  RH  015%=      5-min Rain = 0
KDR1 192020Z 22015KT 24/M05 A2986 RMK A01 T02361049  RH  015%=      5-min Rain = 0
KDR1 192025Z 22013G18KT 24/M05 A2986 RMK A01 T02351049  RH  015%=      5-min Rain = 0
KDR1 192030Z 24013G18KT 24/M05 A2986 RMK A01 T02391048  RH  015%=      5-min Rain = 0
KDR1 192035Z 23013KT 24/M05 A2986 RMK A01 T02381049  RH  014%=      5-min Rain = 0
KDR1 192040Z 22011G16KT 24/M05 A2986 RMK A01 T02421047  RH  014%=      5-min Rain = 0
KDR1 192045Z 23013G18KT 24/M05 A2985 RMK A01 T02421049  RH  014%=      5-min Rain = 0
KDR1 192050Z 22014KT 24/M05 A2985 RMK A01 T02401050  RH  014%=      5-min Rain = 0
KDR1 192055Z 23013G18KT 24/M05 A2985 RMK A01 T02421050  RH  014%=      5-min Rain = 0
KDR1 192100Z 24014KT 24/M05 A2985 RMK A01 T02391050  RH  014%=      5-min Rain = 0
KDR1 192105Z 22011KT 24/M05 A2985 RMK A01 T02401049  RH  014%=      5-min Rain = 0
KDR1 192110Z 22013G18KT 24/M05 A2985 RMK A01 T02401052  RH  014%=      5-min Rain = 0
KDR1 192115Z 23013KT 24/M06 A2985 RMK A01 T02411055  RH  014%=      5-min Rain = 0
KDR1 192120Z 23012G17KT 24/M05 A2985 RMK A01 T02391052  RH  014%=      5-min Rain = 0
KDR1 192125Z 22012G17KT 23/M05 A2984 RMK A01 T02331053  RH  014%=      5-min Rain = 0
KDR1 192130Z 23012G17KT 23/M05 A2984 RMK A01 T02331052  RH  015%=      5-min Rain = 0
KDR1 192135Z 23012KT 24/M05 A2984 RMK A01 T02381051  RH  014%=      5-min Rain = 0
KDR1 192140Z 23011KT 24/M05 A2984 RMK A01 T02371052  RH  014%=      5-min Rain = 0
KDR1 192145Z 23013KT 23/M05 A2984 RMK A01 T02341052  RH  014%=      5-min Rain = 0
KDR1 192150Z 23013KT 24/M05 A2984 RMK A01 T02361052  RH  014%=      5-min Rain = 0
KDR1 192155Z 23011G16KT 24/M05 A2984 RMK A01 T02401053  RH  014%=      5-min Rain = 0
KDR1 192200Z 22011KT 24/M06 A2984 RMK A01 T02381055  RH  014%=      5-min Rain = 0
KDR1 192205Z 22012KT 24/M05 A2984 RMK A01 T02381054  RH  014%=      5-min Rain = 0
KDR1 192210Z 21010KT 24/M05 A2984 RMK A01 T02361054  RH  014%=      5-min Rain = 0
KDR1 192215Z 21010KT 23/M05 A2984 RMK A01 T02301053  RH  015%=      5-min Rain = 0
KDR1 192220Z 21011KT 22/M05 A2984 RMK A01 T02241053  RH  015%=      5-min Rain = 0
KDR1 192225Z 21011KT 22/M05 A2984 RMK A01 T02211052  RH  016%=      5-min Rain = 0
KDR1 192230Z 21012KT 22/M05 A2984 RMK A01 T02181051  RH  016%=      5-min Rain = 0
KDR1 192235Z 21012KT 21/M05 A2984 RMK A01 T02141050  RH  017%=      5-min Rain = 0
KDR1 192240Z 21013KT 21/M05 A2984 RMK A01 T02131050  RH  017%=      5-min Rain = 0
KDR1 192245Z 21012KT 21/M05 A2984 RMK A01 T02101047  RH  017%=      5-min Rain = 0
KDR1 192250Z 21012KT 21/M05 A2984 RMK A01 T02141046  RH  017%=      5-min Rain = 0
KDR1 192255Z 21012KT 22/M05 A2984 RMK A01 T02181046  RH  017%=      5-min Rain = 0
KDR1 192300Z 21011KT 22/M05 A2984 RMK A01 T02151046  RH  017%=      5-min Rain = 0
KDR1 192305Z 21010KT 22/M04 A2984 RMK A01 T02161044  RH  017%=      5-min Rain = 0
KDR1 192310Z 21010G15KT 22/M05 A2984 RMK A01 T02161045  RH  017%=      5-min Rain = 0
KDR1 192315Z 21011KT 22/M05 A2984 RMK A01 T02151045  RH  017%=      5-min Rain = 0
KDR1 192320Z 21010KT 21/M05 A2984 RMK A01 T02101045  RH  018%=      5-min Rain = 0
KDR1 192325Z 21009KT 20/M04 A2984 RMK A01 T02041044  RH  019%=      5-min Rain = 0
KDR1 192330Z 21009KT 20/M04 A2984 RMK A01 T01971043  RH  019%=      5-min Rain = 0
KDR1 192335Z 21010KT 19/M04 A2983 RMK A01 T01911042  RH  020%=      5-min Rain = 0
KDR1 192340Z 21009KT 19/M04 A2983 RMK A01 T01901044  RH  020%=      5-min Rain = 0
KDR1 192345Z 20009KT 18/M04 A2983 RMK A01 T01841043  RH  021%=      5-min Rain = 0
KDR1 192350Z 20011KT 17/M04 A2983 RMK A01 T01721042  RH  023%=      5-min Rain = 0
KDR1 192355Z 20011KT 17/M04 A2983 RMK A01 T01661041  RH  024%=      5-min Rain = 0
KDR1 200000Z 20011KT 16/M04 A2983 RMK A01 T01611041  RH  025%=      5-min Rain = 0
KDR1 200005Z 20011KT 16/M04 A2983 RMK A01 T01621040  RH  025%=      5-min Rain = 0
KDR1 200010Z 20011KT 16/M04 A2983 RMK A01 T01631040  RH  025%=      5-min Rain = 0
KDR1 200015Z 20011KT 16/M04 A2983 RMK A01 T01611041  RH  025%=      5-min Rain = 0
KDR1 200020Z 20010KT 16/M04 A2983 RMK A01 T01571041  RH  025%=      5-min Rain = 0
KDR1 200025Z 20010KT 15/M04 A2983 RMK A01 T01541040  RH  026%=      5-min Rain = 0
KDR1 200030Z 20010KT 15/M04 A2983 RMK A01 T01511040  RH  027%=      5-min Rain = 0
KDR1 200035Z 21010KT 16/M04 A2983 RMK A01 T01571040  RH  026%=      5-min Rain = 0
KDR1 200040Z 21010KT 16/M04 A2984 RMK A01 T01611041  RH  025%=      5-min Rain = 0
KDR1 200045Z 21010KT 16/M04 A2984 RMK A01 T01591041  RH  025%=      5-min Rain = 0
KDR1 200050Z 21010KT 16/M04 A2984 RMK A01 T01561040  RH  026%=      5-min Rain = 0
KDR1 200055Z 20011KT 15/M04 A2984 RMK A01 T01531039  RH  026%=      5-min Rain = 0
KDR1 200100Z 20011KT 16/M04 A2984 RMK A01 T01591038  RH  026%=      5-min Rain = 0
KDR1 200105Z 20011KT 15/M04 A2985 RMK A01 T01531037  RH  027%=      5-min Rain = 0
KDR1 200110Z 20012KT 15/M04 A2985 RMK A01 T01471035  RH  028%=      5-min Rain = 0
KDR1 200115Z 20012KT 15/M03 A2985 RMK A01 T01481034  RH  028%=      5-min Rain = 0
KDR1 200120Z 20012KT 15/M03 A2985 RMK A01 T01521034  RH  028%=      5-min Rain = 0
KDR1 200125Z 20011KT 15/M03 A2984 RMK A01 T01521033  RH  028%=      5-min Rain = 0
KDR1 200130Z 20010KT 15/M03 A2984 RMK A01 T01491031  RH  029%=      5-min Rain = 0
KDR1 200135Z 20010KT 14/M03 A2984 RMK A01 T01441030  RH  030%=      5-min Rain = 0
KDR1 200140Z 20010KT 14/M03 A2984 RMK A01 T01401029  RH  031%=      5-min Rain = 0
KDR1 200145Z 20011KT 14/M03 A2984 RMK A01 T01401028  RH  031%=      5-min Rain = 0
KDR1 200150Z 20012KT 14/M03 A2984 RMK A01 T01391027  RH  032%=      5-min Rain = 0
KDR1 200155Z 20012KT 14/M03 A2984 RMK A01 T01391026  RH  032%=      5-min Rain = 0
KDR1 200200Z 20012KT 14/M03 A2984 RMK A01 T01401026  RH  032%=      5-min Rain = 0
KDR1 200205Z 20012KT 14/M03 A2985 RMK A01 T01381025  RH  032%=      5-min Rain = 0
KDR1 200210Z 20011KT 14/M03 A2985 RMK A01 T01391025  RH  032%=      5-min Rain = 0
KDR1 200215Z 20012KT 14/M03 A2984 RMK A01 T01411025  RH  032%=      5-min Rain = 0
KDR1 200220Z 20012KT 14/M03 A2984 RMK A01 T01421025  RH  032%=      5-min Rain = 0
KDR1 200225Z 20011KT 14/M03 A2984 RMK A01 T01391025  RH  032%=      5-min Rain = 0
KDR1 200230Z 20012KT 14/M03 A2984 RMK A01 T01391025  RH  032%=      5-min Rain = 0
KDR1 200235Z 20012KT 14/M03 A2984 RMK A01 T01441025  RH  031%=      5-min Rain = 0
KDR1 200240Z 21010KT 15/M03 A2984 RMK A01 T01481026  RH  030%=      5-min Rain = 0
KDR1 200245Z 21010KT 15/M03 A2984 RMK A01 T01451026  RH  031%=      5-min Rain = 0
KDR1 200250Z 21009KT 14/M03 A2984 RMK A01 T01441025  RH  031%=      5-min Rain = 0
KDR1 200255Z 21008KT 14/M02 A2984 RMK A01 T01421024  RH  032%=      5-min Rain = 0
KDR1 200300Z 21009KT 14/M02 A2984 RMK A01 T01421024  RH  032%=      5-min Rain = 0
KDR1 200305Z 22008KT 14/M02 A2984 RMK A01 T01351023  RH  034%=      5-min Rain = 0
KDR1 200310Z 21008KT 13/M02 A2984 RMK A01 T01331022  RH  034%=      5-min Rain = 0
KDR1 200315Z 21008KT 14/M02 A2984 RMK A01 T01391022  RH  033%=      5-min Rain = 0
KDR1 200320Z 21009KT 14/M02 A2984 RMK A01 T01371022  RH  034%=      5-min Rain = 0
KDR1 200325Z 21010KT 14/M02 A2984 RMK A01 T01371021  RH  034%=      5-min Rain = 0
KDR1 200330Z 21009KT 14/M02 A2984 RMK A01 T01401022  RH  033%=      5-min Rain = 0
KDR1 200335Z 21009KT 14/M02 A2984 RMK A01 T01441022  RH  032%=      5-min Rain = 0
KDR1 200340Z 20010KT 14/M02 A2984 RMK A01 T01411021  RH  033%=      5-min Rain = 0
KDR1 200345Z 20010KT 14/M02 A2985 RMK A01 T01401021  RH  033%=      5-min Rain = 0
KDR1 200350Z 21010KT 14/M02 A2985 RMK A01 T01371020  RH  034%=      5-min Rain = 0
KDR1 200355Z 21009KT 14/M02 A2985 RMK A01 T01381020  RH  034%=      5-min Rain = 0
KDR1 200400Z 21009KT 14/M02 A2984 RMK A01 T01371020  RH  034%=      5-min Rain = 0
KDR1 200405Z 21009KT 14/M02 A2984 RMK A01 T01371019  RH  034%=      5-min Rain = 0
KDR1 200410Z 21009KT 14/M02 A2984 RMK A01 T01361018  RH  035%=      5-min Rain = 0
KDR1 200415Z 21009KT 14/M02 A2984 RMK A01 T01361018  RH  035%=      5-min Rain = 0
KDR1 200420Z 22010KT 13/M02 A2984 RMK A01 T01341017  RH  035%=      5-min Rain = 0
KDR1 200425Z 22010KT 13/M02 A2984 RMK A01 T01341016  RH  036%=      5-min Rain = 0
KDR1 200430Z 23009KT 13/M02 A2984 RMK A01 T01331015  RH  036%=      5-min Rain = 0
KDR1 200435Z 23011KT 14/M02 A2984 RMK A01 T01351016  RH  035%=      5-min Rain = 0
KDR1 200440Z 22010KT 14/M02 A2984 RMK A01 T01351015  RH  036%=      5-min Rain = 0
KDR1 200445Z 22009KT 13/M01 A2984 RMK A01 T01331014  RH  036%=      5-min Rain = 0
KDR1 200450Z 22011KT 13/M01 A2984 RMK A01 T01331014  RH  037%=      5-min Rain = 0
KDR1 200455Z 23011KT 13/M01 A2984 RMK A01 T01331013  RH  037%=      5-min Rain = 0
KDR1 200500Z 23011KT 14/M01 A2984 RMK A01 T01351012  RH  037%=      5-min Rain = 0
KDR1 200505Z 23011G16KT 14/M01 A2984 RMK A01 T01371011  RH  036%=      5-min Rain = 0
KDR1 200510Z 23011KT 14/M01 A2984 RMK A01 T01381010  RH  036%=      5-min Rain = 0
KDR1 200515Z 23011KT 14/M01 A2984 RMK A01 T01361010  RH  037%=      5-min Rain = 0
KDR1 200520Z 22011KT 14/M01 A2984 RMK A01 T01351009  RH  037%=      5-min Rain = 0
KDR1 200525Z 22012KT 14/M01 A2984 RMK A01 T01371008  RH  037%=      5-min Rain = 0
KDR1 200530Z 22012KT 14/M01 A2984 RMK A01 T01371008  RH  037%=      5-min Rain = 0
KDR1 200535Z 22012KT 14/M01 A2984 RMK A01 T01401009  RH  036%=      5-min Rain = 0
KDR1 200540Z 22013KT 14/M01 A2984 RMK A01 T01411008  RH  036%=      5-min Rain = 0
KDR1 200545Z 22013KT 15/M01 A2984 RMK A01 T01471008  RH  035%=      5-min Rain = 0
KDR1 200550Z 22013KT 15/M01 A2984 RMK A01 T01491008  RH  034%=      5-min Rain = 0
KDR1 200555Z 22013KT 15/M01 A2984 RMK A01 T01491008  RH  034%=      5-min Rain = 0

Page generated in 0.01 seconds.